Time;durP1;ratioP1;P1;durP2;ratioP2;P2;SDS_P1;SDS_P2;PMS_P1;PMS_P2;Temp;Humidity;BMP_temperature;BMP_pressure;BME280_temperature;BME280_humidity;BME280_pressure;Samples;Min_cycle;Max_cycle;Signal;HPM_P1;HPM_P2
2022/08/17 00:00:53;;;;;;;8.07;6.20;;;29.50;56.30;;;;;;4977770;28;20081;-76
2022/08/17 00:03:27;;;;;;;7.63;6.10;;;29.50;56.40;;;;;;4978197;28;20338;-75
2022/08/17 00:06:07;;;;;;;7.38;6.28;;;29.60;56.20;;;;;;4976985;28;20062;-76
2022/08/17 00:08:36;;;;;;;6.57;5.60;;;29.50;56.70;;;;;;4994398;28;20030;-75
2022/08/17 00:11:05;;;;;;;9.30;6.18;;;29.40;57.10;;;;;;4996142;28;20030;-78
2022/08/17 00:13:35;;;;;;;12.02;7.13;;;29.00;57.80;;;;;;4993350;28;20449;-77
2022/08/17 00:16:03;;;;;;;;;;;29.10;57.60;;;;;;4976287;28;20112;-77
2022/08/17 00:18:30;;;;;;;9.68;6.43;;;29.30;57.40;;;;;;4995838;28;19953;-75
2022/08/17 00:20:58;;;;;;;9.40;6.78;;;29.30;57.10;;;;;;4978467;28;20501;-75
2022/08/17 00:23:24;;;;;;;7.45;6.40;;;29.40;56.90;;;;;;4992507;28;20023;-77
2022/08/17 00:25:51;;;;;;;8.93;6.75;;;29.30;57.00;;;;;;4992203;28;20428;-76
2022/08/17 00:28:18;;;;;;;7.72;6.80;;;29.20;57.20;;;;;;4977913;28;20468;-76
2022/08/17 00:30:45;;;;;;;10.23;7.40;;;29.20;57.10;;;;;;4977346;28;20476;-78
2022/08/17 00:33:15;;;;;;;6.72;5.78;;;29.30;57.10;;;;;;4977269;28;20564;-77
2022/08/17 00:35:42;;;;;;;8.23;6.50;;;29.00;57.40;;;;;;4995748;28;20068;-76
2022/08/17 00:38:08;;;;;;;8.43;7.00;;;28.90;57.70;;;;;;4993576;28;20527;-75
2022/08/17 00:40:47;;;;;;;9.65;6.57;;;28.90;57.50;;;;;;4992626;28;20389;-75
2022/08/17 00:43:44;;;;;;;8.65;6.65;;;29.10;57.30;;;;;;4991933;28;20014;-77
2022/08/17 00:46:19;;;;;;;8.25;6.53;;;29.20;57.60;;;;;;4993505;28;20034;-75
2022/08/17 00:48:45;;;;;;;8.00;6.70;;;29.30;57.30;;;;;;4977250;28;20105;-77
2022/08/17 00:51:31;;;;;;;8.63;6.80;;;29.10;57.20;;;;;;4994545;28;20342;-75
2022/08/17 00:54:07;;;;;;;8.65;6.85;;;28.90;57.40;;;;;;4992060;28;20105;-76
2022/08/17 00:56:40;;;;;;;8.23;6.50;;;28.90;57.40;;;;;;4993292;28;20100;-76
2022/08/17 00:59:07;;;;;;;9.27;7.03;;;28.80;57.50;;;;;;4992565;28;20042;-75
2022/08/17 01:01:33;;;;;;;8.55;7.10;;;28.60;57.90;;;;;;4974767;28;20045;-76
2022/08/17 01:04:01;;;;;;;8.38;6.80;;;28.60;57.90;;;;;;4977548;28;20022;-76
2022/08/17 01:06:28;;;;;;;10.00;7.63;;;28.60;57.80;;;;;;4975027;28;20437;-77
2022/08/17 01:08:56;;;;;;;10.27;7.15;;;28.60;58.00;;;;;;4977388;28;20029;-77
2022/08/17 01:11:22;;;;;;;8.57;6.90;;;28.60;58.00;;;;;;4992521;28;20034;-77
2022/08/17 01:13:48;;;;;;;9.25;7.65;;;28.60;57.90;;;;;;4990798;28;20057;-76
2022/08/17 01:16:24;;;;;;;9.02;7.53;;;28.70;58.00;;;;;;4976229;28;20026;-76
2022/08/17 01:18:54;;;;;;;11.05;7.28;;;28.70;57.90;;;;;;4993143;28;20014;-78
2022/08/17 01:21:41;;;;;;;8.52;7.00;;;28.70;57.90;;;;;;4993723;28;20377;-77
2022/08/17 01:24:07;;;;;;;8.88;7.55;;;28.60;57.90;;;;;;4964460;28;20029;-76
2022/08/17 01:26:34;;;;;;;9.57;7.80;;;28.60;58.20;;;;;;4976274;28;20050;-78
2022/08/17 01:29:03;;;;;;;7.28;6.10;;;28.70;58.10;;;;;;4976428;28;20026;-75
2022/08/17 01:31:35;;;;;;;8.68;7.13;;;28.70;58.40;;;;;;4975640;28;20018;-76
2022/08/17 01:34:05;;;;;;;8.25;7.25;;;28.60;58.90;;;;;;4992867;28;20052;-77
2022/08/17 01:36:31;;;;;;;9.45;7.13;;;28.60;58.80;;;;;;4975649;28;20054;-75
2022/08/17 01:38:56;;;;;;;9.48;7.10;;;28.70;58.40;;;;;;4993903;28;20482;-77
2022/08/17 01:41:23;;;;;;;9.82;7.55;;;28.80;58.20;;;;;;4991561;28;20034;-76
2022/08/17 01:43:55;;;;;;;8.70;7.10;;;28.80;58.20;;;;;;4990587;28;20026;-75
2022/08/17 01:46:25;;;;;;;9.90;7.20;;;28.70;58.20;;;;;;4993505;28;20030;-76
2022/08/17 01:48:52;;;;;;;9.88;6.97;;;28.70;58.20;;;;;;4992549;28;20018;-80
2022/08/17 01:51:19;;;;;;;8.63;7.45;;;28.80;58.80;;;;;;4993117;28;20044;-77
2022/08/17 01:53:53;;;;;;;10.10;7.00;;;28.80;58.30;;;;;;4993334;28;20101;-78
2022/08/17 01:56:22;;;;;;;8.48;7.20;;;28.70;58.40;;;;;;4993149;28;20018;-77
2022/08/17 01:58:48;;;;;;;7.72;6.60;;;28.60;58.50;;;;;;4975648;28;20124;-78
2022/08/17 02:01:15;;;;;;;8.88;7.20;;;28.60;58.50;;;;;;4992254;28;20536;-78
2022/08/17 02:03:41;;;;;;;8.35;7.32;;;28.60;58.70;;;;;;4994165;28;20123;-77
2022/08/17 02:06:07;;;;;;;10.65;7.28;;;28.60;58.80;;;;;;4975050;28;20030;-76
2022/08/17 02:08:34;;;;;;;8.30;6.80;;;28.60;58.80;;;;;;4994153;28;20023;-76
2022/08/17 02:11:03;;;;;;;11.25;7.60;;;28.50;59.10;;;;;;4991133;28;20021;-76
2022/08/17 02:13:30;;;;;;;9.98;7.13;;;28.40;59.40;;;;;;4992221;28;20480;-75
2022/08/17 02:15:57;;;;;;;9.38;7.43;;;28.30;59.60;;;;;;4992114;28;20105;-77
2022/08/17 02:18:24;;;;;;;11.02;8.02;;;28.20;59.90;;;;;;4977651;28;20028;-77
2022/08/17 02:20:50;;;;;;;9.20;7.43;;;28.10;60.00;;;;;;4975662;28;20129;-78
2022/08/17 02:23:16;;;;;;;9.65;8.18;;;28.20;59.80;;;;;;4993549;28;20019;-78
2022/08/17 02:25:46;;;;;;;8.57;7.40;;;28.20;59.60;;;;;;4991826;28;20109;-77
2022/08/17 02:28:12;;;;;;;8.30;6.97;;;28.20;59.40;;;;;;4990211;28;20026;-77
2022/08/17 02:30:38;;;;;;;8.23;7.13;;;28.30;59.20;;;;;;4975846;28;20033;-77
2022/08/17 02:33:05;;;;;;;8.20;7.00;;;28.30;59.10;;;;;;4973528;28;20109;-76
2022/08/17 02:35:31;;;;;;;10.52;7.30;;;28.30;58.90;;;;;;4991683;28;20045;-77
2022/08/17 02:37:57;;;;;;;8.85;7.13;;;28.30;58.80;;;;;;4992422;28;20031;-79
2022/08/17 02:40:23;;;;;;;10.48;7.80;;;28.20;58.60;;;;;;4993354;28;20034;-76
2022/08/17 02:42:48;;;;;;;9.18;6.90;;;28.20;58.40;;;;;;4972865;28;20018;-76
2022/08/17 02:45:21;;;;;;;11.35;7.88;;;28.20;58.40;;;;;;4976111;28;20435;-75
2022/08/17 02:47:49;;;;;;;9.35;6.80;;;28.30;58.10;;;;;;4991441;28;20022;-77
2022/08/17 02:50:17;;;;;;;9.35;7.30;;;28.30;57.80;;;;;;4975845;28;20022;-79
2022/08/17 02:52:46;;;;;;;9.55;7.78;;;28.40;57.80;;;;;;4974508;28;20054;-78
2022/08/17 02:55:16;;;;;;;10.30;7.40;;;28.30;58.10;;;;;;4992335;28;20038;-75
2022/08/17 02:57:42;;;;;;;8.48;7.20;;;28.40;58.30;;;;;;4990079;28;20435;-78
2022/08/17 03:00:11;;;;;;;9.45;7.28;;;28.40;58.40;;;;;;4993042;28;20042;-79
2022/08/17 03:02:41;;;;;;;9.25;7.43;;;28.40;58.60;;;;;;4991451;28;20014;-79
2022/08/17 03:05:08;;;;;;;;;;;28.30;58.90;;;;;;4977068;28;20050;-78
2022/08/17 03:07:34;;;;;;;9.15;7.85;;;28.20;59.40;;;;;;4992521;28;19927;-78
2022/08/17 03:10:00;;;;;;;8.05;7.05;;;28.20;59.40;;;;;;4991625;28;20385;-79
2022/08/17 03:12:31;;;;;;;10.93;7.68;;;28.20;59.20;;;;;;4974945;28;20031;-77
2022/08/17 03:14:57;;;;;;;8.65;7.50;;;28.20;59.10;;;;;;4974543;28;20030;-77
2022/08/17 03:17:23;;;;;;;9.13;7.97;;;28.10;59.30;;;;;;4989548;28;20034;-77
2022/08/17 03:19:48;;;;;;;8.40;7.47;;;28.00;59.50;;;;;;4991429;28;20368;-77
2022/08/17 03:22:14;;;;;;;10.30;8.13;;;28.00;59.60;;;;;;4991809;28;20430;-78
2022/08/17 03:24:40;;;;;;;9.48;7.95;;;28.00;59.70;;;;;;4975714;28;20369;-79
2022/08/17 03:27:05;;;;;;;8.45;7.28;;;28.10;59.60;;;;;;4973902;28;20162;-77
2022/08/17 03:29:31;;;;;;;10.32;7.43;;;28.10;59.40;;;;;;4990099;28;20432;-78
2022/08/17 03:31:57;;;;;;;8.95;7.53;;;28.10;59.40;;;;;;4980070;28;20032;-78
2022/08/17 03:34:22;;;;;;;9.50;7.68;;;28.20;59.30;;;;;;4991328;28;20407;-77
2022/08/17 03:36:48;;;;;;;14.13;7.63;;;28.20;59.30;;;;;;4974567;28;20030;-77
2022/08/17 03:39:14;;;;;;;10.73;7.90;;;28.10;59.10;;;;;;4990231;28;20469;-78
2022/08/17 03:41:39;;;;;;;8.52;7.40;;;28.10;59.20;;;;;;4991381;28;20457;-77
2022/08/17 03:44:06;;;;;;;9.00;8.00;;;28.10;59.20;;;;;;4990138;28;20022;-77
2022/08/17 03:57:30;;;;;;;9.90;7.68;;;28.00;59.40;;;;;;4991165;28;20073;-76
2022/08/17 03:59:56;;;;;;;9.98;7.75;;;28.10;59.30;;;;;;4973744;28;20035;-76
2022/08/17 04:02:32;;;;;;;11.00;8.75;;;28.10;59.10;;;;;;4994519;28;20035;-77
2022/08/17 04:04:58;;;;;;;8.80;7.65;;;28.10;59.20;;;;;;4977870;28;20252;-76
2022/08/17 04:07:27;;;;;;;10.93;8.35;;;28.20;59.40;;;;;;4974586;28;20066;-76
2022/08/17 04:09:53;;;;;;;10.43;8.60;;;28.20;59.40;;;;;;4993710;28;20108;-77
2022/08/17 04:12:21;;;;;;;9.88;8.13;;;28.10;59.20;;;;;;4978719;28;20109;-78
2022/08/17 04:14:47;;;;;;;10.15;8.23;;;28.00;59.40;;;;;;4996262;28;20383;-75
2022/08/17 04:17:13;;;;;;;9.80;8.20;;;28.10;59.10;;;;;;4977778;28;20022;-76
2022/08/17 04:19:39;;;;;;;10.05;7.85;;;28.10;59.10;;;;;;4993249;28;20023;-75
2022/08/17 04:22:05;;;;;;;11.90;8.15;;;28.10;59.40;;;;;;4994434;28;20033;-75
2022/08/17 04:24:32;;;;;;;10.65;7.72;;;28.10;59.30;;;;;;4994119;28;20076;-77
2022/08/17 04:26:58;;;;;;;9.00;7.88;;;28.10;59.50;;;;;;4978511;28;20112;-78
2022/08/17 04:29:26;;;;;;;9.52;7.95;;;28.10;59.40;;;;;;4994617;28;20153;-75
2022/08/17 04:31:52;;;;;;;12.25;8.18;;;28.10;59.60;;;;;;4995576;28;20053;-78
2022/08/17 04:34:19;;;;;;;10.18;8.27;;;28.20;59.50;;;;;;5000226;28;20528;-77
2022/08/17 04:36:44;;;;;;;9.32;8.15;;;28.30;59.50;;;;;;4977581;28;20018;-76
2022/08/17 04:39:10;;;;;;;11.15;8.20;;;28.30;59.30;;;;;;4991345;28;20049;-76
2022/08/17 04:44:20;;;;;;;10.63;7.70;;;28.30;59.30;;;;;;4980999;28;20378;-77
2022/08/17 04:46:48;;;;;;;10.73;7.35;;;28.40;59.10;;;;;;4963473;28;20457;-76
2022/08/17 04:49:14;;;;;;;9.85;7.38;;;28.50;59.00;;;;;;4974718;28;20103;-78
2022/08/17 04:51:45;;;;;;;12.38;8.43;;;28.60;58.90;;;;;;4993319;28;20034;-78
2022/08/17 04:54:17;;;;;;;9.05;7.85;;;28.70;59.00;;;;;;4992804;28;20022;-76
2022/08/17 04:56:43;;;;;;;10.93;8.07;;;28.70;59.00;;;;;;4990423;28;20022;-76
2022/08/17 04:59:17;;;;;;;10.70;8.43;;;28.70;59.20;;;;;;4983374;28;20087;-77
2022/08/17 05:01:45;;;;;;;8.70;7.80;;;28.70;59.20;;;;;;4977707;28;20057;-77
2022/08/17 05:04:16;;;;;;;9.68;7.68;;;28.80;59.20;;;;;;4975421;28;20018;-81
2022/08/17 05:06:43;;;;;;;9.43;8.10;;;28.80;59.00;;;;;;4993403;28;20050;-78
2022/08/17 05:09:09;;;;;;;9.02;7.72;;;28.90;58.90;;;;;;4993220;28;20022;-75
2022/08/17 05:11:35;;;;;;;8.45;7.45;;;28.90;58.90;;;;;;4991858;28;20398;-75
2022/08/17 05:14:02;;;;;;;8.70;7.60;;;29.00;58.70;;;;;;4994755;28;20030;-75
2022/08/17 05:16:28;;;;;;;9.57;7.93;;;29.10;58.20;;;;;;4989434;28;20026;-75
2022/08/17 05:18:55;;;;;;;8.88;7.40;;;29.00;58.00;;;;;;4985787;28;20021;-78
2022/08/17 05:21:22;;;;;;;12.48;8.30;;;29.10;57.70;;;;;;4968084;28;20125;-75
2022/08/17 05:23:49;;;;;;;9.02;7.53;;;29.20;57.80;;;;;;4994011;28;20052;-78
2022/08/17 05:26:17;;;;;;;9.23;7.35;;;29.30;57.80;;;;;;4996990;28;20400;-76
2022/08/17 05:28:46;;;;;;;9.60;8.05;;;29.30;57.90;;;;;;4977208;28;20373;-76
2022/08/17 05:31:15;;;;;;;9.43;7.60;;;29.10;58.40;;;;;;4994698;28;20022;-75
2022/08/17 05:33:42;;;;;;;8.70;7.22;;;28.90;58.80;;;;;;4993590;28;20484;-79
2022/08/17 05:36:11;;;;;;;11.27;8.23;;;28.90;58.90;;;;;;4977103;28;20113;-77
2022/08/17 05:38:37;;;;;;;9.60;7.75;;;28.90;59.10;;;;;;4977036;28;20109;-76
2022/08/17 05:41:05;;;;;;;9.68;7.57;;;28.90;59.10;;;;;;4994682;28;20038;-82
2022/08/17 05:43:33;;;;;;;14.30;8.00;;;28.90;59.30;;;;;;4976754;28;20157;-75
2022/08/17 05:46:23;;;;;;;9.30;7.38;;;29.10;59.20;;;;;;4992361;28;20025;-79
2022/08/17 05:48:56;;;;;;;8.93;7.57;;;29.20;58.60;;;;;;4993842;28;20030;-77
2022/08/17 05:51:55;;;;;;;9.80;7.30;;;29.30;58.20;;;;;;4993686;28;20034;-77
2022/08/17 05:54:47;;;;;;;7.70;6.80;;;29.20;58.20;;;;;;4993575;28;20495;-75
2022/08/17 05:57:49;;;;;;;9.57;6.60;;;29.10;58.50;;;;;;4991210;28;20058;-76
2022/08/17 06:00:27;;;;;;;10.73;6.88;;;29.30;58.10;;;;;;4987418;28;20053;-79
2022/08/17 06:02:58;;;;;;;8.32;6.57;;;29.50;57.60;;;;;;4976761;28;20113;-77
2022/08/17 06:05:35;;;;;;;7.82;6.75;;;29.80;57.30;;;;;;4993976;28;20074;-76
2022/08/17 06:08:39;;;;;;;7.95;6.28;;;29.80;57.30;;;;;;4976523;28;20019;-75
2022/08/17 06:11:42;;;;;;;7.47;6.55;;;30.00;57.10;;;;;;4976343;28;20022;-76
2022/08/17 06:14:33;;;;;;;9.43;6.40;;;30.20;56.90;;;;;;4976325;28;20049;-75
2022/08/17 06:17:07;;;;;;;8.13;6.25;;;30.50;57.20;;;;;;4993882;28;20428;-76
2022/08/17 06:19:46;;;;;;;7.60;6.70;;;30.70;57.10;;;;;;4976152;28;20030;-79
2022/08/17 06:22:15;;;;;;;7.90;6.82;;;30.80;56.80;;;;;;4993775;28;20038;-77
2022/08/17 06:24:55;;;;;;;8.73;6.85;;;30.90;56.30;;;;;;4975269;28;20026;-78
2022/08/17 06:27:39;;;;;;;7.07;6.15;;;31.10;56.20;;;;;;4976366;28;20018;-77
2022/08/17 06:30:19;;;;;;;8.93;6.72;;;31.20;56.10;;;;;;4976053;28;20030;-76
2022/08/17 06:32:46;;;;;;;9.23;6.60;;;31.30;56.20;;;;;;4976063;28;20064;-78
2022/08/17 06:35:36;;;;;;;7.68;6.70;;;31.50;55.30;;;;;;4993440;28;20025;-78
2022/08/17 06:38:09;;;;;;;7.50;6.20;;;31.60;54.70;;;;;;4976188;28;20024;-78
2022/08/17 06:41:21;;;;;;;8.02;6.10;;;31.70;54.60;;;;;;4975855;28;20117;-80
2022/08/17 06:44:29;;;;;;;7.88;7.07;;;31.80;53.90;;;;;;4986125;28;20359;-77
2022/08/17 06:47:11;;;;;;;10.05;6.72;;;31.80;54.30;;;;;;4974026;28;20037;-79
2022/08/17 06:49:48;;;;;;;8.90;6.75;;;32.00;54.00;;;;;;4993725;28;20026;-83
2022/08/17 06:52:27;;;;;;;7.63;6.82;;;32.20;53.80;;;;;;4993066;28;20030;-80
2022/08/17 06:54:56;;;;;;;22.15;7.50;;;32.50;54.20;;;;;;4975954;28;20093;-79
2022/08/17 06:57:29;;;;;;;8.25;6.60;;;32.70;54.10;;;;;;4993258;28;20091;-79
2022/08/17 07:00:05;;;;;;;9.70;6.40;;;32.80;53.90;;;;;;4993169;28;20065;-81
2022/08/17 07:02:45;;;;;;;9.57;7.05;;;32.80;53.90;;;;;;4976233;28;20081;-84
2022/08/17 07:05:15;;;;;;;9.70;6.47;;;32.60;54.10;;;;;;4993623;28;20073;-80
2022/08/17 07:08:01;;;;;;;9.40;6.93;;;32.80;54.00;;;;;;4993509;28;20018;-79
2022/08/17 07:10:31;;;;;;;7.57;6.65;;;32.90;54.10;;;;;;4976221;28;20050;-78
2022/08/17 07:13:15;;;;;;;10.05;6.25;;;32.90;54.00;;;;;;4976362;28;20030;-82
2022/08/17 07:15:42;;;;;;;7.32;6.43;;;33.10;53.70;;;;;;4975938;28;20039;-78
2022/08/17 07:18:09;;;;;;;8.20;6.32;;;33.40;53.50;;;;;;4975863;28;20412;-80
2022/08/17 07:20:39;;;;;;;8.07;6.45;;;33.50;53.40;;;;;;4993063;28;20109;-78
2022/08/17 07:23:33;;;;;;;8.10;6.28;;;33.70;53.30;;;;;;4976101;28;20069;-79
2022/08/17 07:26:07;;;;;;;8.77;5.95;;;33.70;52.40;;;;;;4975973;28;20381;-79
2022/08/17 07:28:34;;;;;;;9.50;6.20;;;33.80;52.30;;;;;;4976068;28;20412;-79
2022/08/17 07:31:00;;;;;;;8.85;6.63;;;33.80;52.10;;;;;;4975630;28;20022;-80
2022/08/17 07:33:29;;;;;;;8.43;7.10;;;33.90;52.30;;;;;;4993574;28;20018;-79
2022/08/17 07:35:57;;;;;;;7.88;6.32;;;34.20;51.50;;;;;;4996554;28;20065;-80
2022/08/17 07:38:24;;;;;;;9.68;5.90;;;34.30;51.90;;;;;;4979991;28;20062;-81
2022/08/17 07:41:02;;;;;;;8.48;6.20;;;34.40;50.90;;;;;;4997395;28;20034;-81
2022/08/17 07:43:34;;;;;;;7.15;6.00;;;34.60;51.00;;;;;;4979768;28;20073;-79
2022/08/17 07:48:53;;;;;;;8.93;6.15;;;34.70;50.80;;;;;;4997207;28;20036;-81
2022/08/17 07:51:30;;;;;;;8.15;6.25;;;34.80;51.20;;;;;;4979731;28;20038;-87
2022/08/17 07:54:21;;;;;;;8.45;6.20;;;34.70;50.70;;;;;;4997110;28;20101;-81
2022/08/17 07:57:21;;;;;;;7.00;6.18;;;34.70;51.00;;;;;;4974122;28;20101;-84
2022/08/17 07:59:59;;;;;;;7.10;6.28;;;34.80;50.80;;;;;;4996539;28;20072;-80
2022/08/17 08:02:40;;;;;;;10.30;6.03;;;35.10;50.10;;;;;;4996812;28;20057;-80
2022/08/17 08:05:22;;;;;;;7.25;6.00;;;35.20;49.40;;;;;;4979797;28;20029;-90
2022/08/17 08:07:56;;;;;;;7.53;5.68;;;35.40;49.30;;;;;;4996948;28;20037;-79
2022/08/17 08:10:28;;;;;;;10.32;5.75;;;35.60;48.80;;;;;;4996330;28;20023;-81
2022/08/17 08:13:08;;;;;;;7.38;6.07;;;35.80;49.10;;;;;;4979045;28;20476;-80
2022/08/17 08:15:40;;;;;;;8.00;6.18;;;36.00;49.10;;;;;;4979114;28;20458;-79
2022/08/17 08:18:20;;;;;;;9.77;6.10;;;36.00;48.70;;;;;;4996326;28;20030;-79
2022/08/17 08:20:54;;;;;;;7.45;6.65;;;36.10;48.60;;;;;;4996548;28;20485;-79
2022/08/17 08:23:38;;;;;;;8.50;6.00;;;36.10;48.50;;;;;;4996317;28;20105;-82
2022/08/17 08:26:30;;;;;;;7.00;6.00;;;36.20;48.30;;;;;;4996578;28;20026;-80
2022/08/17 08:29:11;;;;;;;7.00;5.80;;;36.00;49.00;;;;;;4996396;28;20373;-86
2022/08/17 08:31:58;;;;;;;8.55;6.78;;;36.10;48.70;;;;;;4979038;28;20512;-86
2022/08/17 08:34:35;;;;;;;9.65;6.35;;;36.10;48.80;;;;;;4996328;28;20018;-80
2022/08/17 08:37:13;;;;;;;8.70;6.78;;;36.30;49.40;;;;;;4996313;28;20093;-79
2022/08/17 08:39:57;;;;;;;8.07;6.28;;;36.50;48.30;;;;;;4978649;28;20022;-79
2022/08/17 08:42:35;;;;;;;9.98;6.03;;;36.60;48.20;;;;;;4995888;28;20397;-80
2022/08/17 08:45:30;;;;;;;7.35;6.20;;;36.70;49.10;;;;;;4996190;28;20040;-80
2022/08/17 08:48:34;;;;;;;7.72;6.40;;;37.00;48.00;;;;;;4977665;28;20035;-86
2022/08/17 08:51:17;;;;;;;8.85;6.28;;;37.00;47.80;;;;;;4978517;28;20060;-80
2022/08/17 08:53:52;;;;;;;8.07;6.50;;;36.90;48.60;;;;;;4978889;28;20034;-82
2022/08/17 08:56:35;;;;;;;8.75;6.47;;;37.00;48.00;;;;;;4978391;28;20030;-81
2022/08/17 08:59:09;;;;;;;7.70;5.95;;;37.10;47.50;;;;;;4978090;28;20034;-79
2022/08/17 09:02:08;;;;;;;8.35;6.35;;;37.20;47.30;;;;;;4995686;28;20385;-79
2022/08/17 09:04:40;;;;;;;7.03;6.20;;;37.00;47.50;;;;;;4978469;28;20493;-80
2022/08/17 09:07:32;;;;;;;9.15;6.60;;;37.20;47.50;;;;;;4995603;28;20379;-77
2022/08/17 09:10:39;;;;;;;7.35;6.25;;;37.50;47.90;;;;;;4977751;28;20030;-77
2022/08/17 09:13:32;;;;;;;8.18;6.13;;;37.70;47.10;;;;;;4954687;28;20387;-78
2022/08/17 09:16:06;;;;;;;9.32;5.95;;;37.70;46.90;;;;;;4954574;29;20031;-79
2022/08/17 09:18:39;;;;;;;11.15;6.32;;;37.50;47.40;;;;;;4954652;28;20035;-79
2022/08/17 09:21:08;;;;;;;9.80;5.80;;;37.40;46.80;;;;;;4938322;29;20035;-79
2022/08/17 09:24:08;;;;;;;7.97;6.15;;;37.20;46.70;;;;;;4954499;28;20039;-78
2022/08/17 09:26:39;;;;;;;6.60;5.90;;;37.20;46.80;;;;;;4933177;29;20035;-79
2022/08/17 09:29:11;;;;;;;6.78;6.03;;;37.50;46.90;;;;;;4954072;28;20031;-84
2022/08/17 09:31:52;;;;;;;10.48;5.95;;;37.70;46.80;;;;;;4954242;29;20439;-76
2022/08/17 09:34:32;;;;;;;9.00;6.25;;;37.60;46.70;;;;;;4954902;29;20102;-87
2022/08/17 09:37:23;;;;;;;8.30;6.15;;;37.40;46.30;;;;;;4954364;28;20035;-80
2022/08/17 09:40:07;;;;;;;;;;;37.40;47.10;;;;;;4938595;29;20034;-79
2022/08/17 09:43:14;;;;;;;10.05;6.78;;;37.60;46.70;;;;;;4937854;29;19914;-78
2022/08/17 09:45:56;;;;;;;8.93;6.07;;;37.90;48.00;;;;;;4881175;29;20051;-75
2022/08/17 09:48:54;;;;;;;6.40;5.50;;;37.80;46.60;;;;;;4897147;29;20573;-79
2022/08/17 09:51:32;;;;;;;7.43;5.63;;;37.70;46.40;;;;;;4897264;29;20508;-82
2022/08/17 09:53:58;;;;;;;7.55;6.00;;;37.80;46.60;;;;;;4897432;29;20469;-78
2022/08/17 09:56:48;;;;;;;6.25;5.38;;;37.90;45.70;;;;;;4881086;29;20603;-79
2022/08/17 09:59:37;;;;;;;6.85;5.82;;;37.90;46.10;;;;;;4880056;29;20036;-80
2022/08/17 10:02:24;;;;;;;9.10;5.65;;;37.70;45.90;;;;;;4896616;29;20137;-79
2022/08/17 10:05:08;;;;;;;7.72;5.30;;;37.50;45.30;;;;;;4896891;29;20075;-82
2022/08/17 10:08:09;;;;;;;7.10;5.85;;;37.70;45.70;;;;;;4896767;29;20032;-81
2022/08/17 10:10:57;;;;;;;9.52;5.70;;;37.90;45.90;;;;;;4859392;29;20097;-78
2022/08/17 10:13:41;;;;;;;6.72;5.57;;;37.90;45.50;;;;;;4859655;29;20442;-80
2022/08/17 10:16:23;;;;;;;8.95;5.28;;;38.10;45.70;;;;;;4859336;29;20403;-76
2022/08/17 10:19:01;;;;;;;7.10;5.15;;;38.00;44.90;;;;;;4870335;29;20059;-80
2022/08/17 10:27:03;;;;;;;7.47;4.75;;;38.00;44.90;;;;;;4934441;29;20067;-80
2022/08/17 10:29:37;;;;;;;5.63;4.95;;;38.00;44.20;;;;;;4918755;29;20030;-85
2022/08/17 10:32:11;;;;;;;6.78;5.10;;;38.10;45.00;;;;;;4917918;29;20051;-79
2022/08/17 10:34:52;;;;;;;6.50;5.03;;;38.40;44.20;;;;;;4934783;29;20077;-80
2022/08/17 10:37:42;;;;;;;7.38;5.07;;;38.40;45.10;;;;;;4918109;29;20058;-84
2022/08/17 10:40:24;;;;;;;5.75;4.93;;;38.50;43.70;;;;;;4918209;29;20027;-79
2022/08/17 10:43:01;;;;;;;7.93;4.90;;;38.70;43.50;;;;;;4918584;29;20048;-86
2022/08/17 10:46:03;;;;;;;5.63;4.60;;;39.00;43.80;;;;;;4968544;28;20038;-76
2022/08/17 10:48:33;;;;;;;8.32;5.18;;;39.40;43.00;;;;;;4976924;28;20023;-79
2022/08/17 10:51:06;;;;;;;7.10;5.00;;;39.60;43.30;;;;;;4993742;28;20026;-79
2022/08/17 10:53:32;;;;;;;6.85;5.40;;;39.80;44.20;;;;;;4976563;28;20034;-85
2022/08/17 10:56:15;;;;;;;8.35;5.32;;;39.80;43.40;;;;;;4976450;28;20033;-77
2022/08/17 10:58:58;;;;;;;5.47;4.47;;;39.80;43.20;;;;;;4977075;28;20027;-80
2022/08/17 11:01:36;;;;;;;8.10;4.80;;;39.80;42.00;;;;;;4953798;28;20039;-80
2022/08/17 11:04:08;;;;;;;5.53;4.45;;;40.00;42.70;;;;;;4953910;29;20027;-77
2022/08/17 11:06:42;;;;;;;7.50;4.85;;;39.90;42.80;;;;;;4954112;29;20034;-78
2022/08/17 11:09:26;;;;;;;6.53;4.78;;;39.80;42.90;;;;;;4974470;28;20070;-80
2022/08/17 11:12:35;;;;;;;5.00;4.32;;;39.60;43.50;;;;;;4961275;28;20486;-79
2022/08/17 11:15:10;;;;;;;9.43;4.57;;;39.50;42.10;;;;;;4946182;28;20031;-83
2022/08/17 11:17:48;;;;;;;5.43;4.65;;;39.20;42.30;;;;;;4978152;28;20054;-78
2022/08/17 11:20:40;;;;;;;7.47;4.53;;;38.90;43.10;;;;;;4978116;28;20077;-81
2022/08/17 11:23:24;;;;;;;9.63;4.85;;;39.10;43.80;;;;;;4978119;28;20050;-80
2022/08/17 11:25:54;;;;;;;6.10;4.78;;;39.30;43.50;;;;;;4978093;28;20019;-82
2022/08/17 11:28:25;;;;;;;5.70;5.05;;;39.00;42.40;;;;;;4978022;28;20093;-79
2022/08/17 11:30:53;;;;;;;5.20;4.50;;;39.20;42.10;;;;;;4960971;28;20363;-88
2022/08/17 11:33:28;;;;;;;4.90;4.10;;;39.20;42.90;;;;;;4960294;28;20030;-81
2022/08/17 11:36:30;;;;;;;5.60;4.50;;;39.40;41.30;;;;;;4977824;28;20399;-80
2022/08/17 11:39:36;;;;;;;5.97;4.72;;;39.50;41.70;;;;;;4880792;29;20037;-78
2022/08/17 11:42:24;;;;;;;4.90;4.32;;;39.50;42.40;;;;;;4864583;29;20097;-79
2022/08/17 11:44:55;;;;;;;7.65;5.25;;;39.40;43.00;;;;;;4865046;29;20025;-79
2022/08/17 11:53:04;;;;;;;8.48;4.60;;;39.50;43.20;;;;;;4880528;29;20100;-83
2022/08/17 11:55:34;;;;;;;7.15;4.47;;;39.60;42.50;;;;;;4864648;29;20035;-82
2022/08/17 11:58:14;;;;;;;6.35;4.65;;;39.70;42.70;;;;;;4864743;29;20032;-85
2022/08/17 12:00:47;;;;;;;6.55;4.50;;;39.80;41.70;;;;;;4906512;29;20056;-75
2022/08/17 12:03:31;;;;;;;7.30;4.47;;;39.70;42.20;;;;;;4902416;29;20028;-85
2022/08/17 12:06:16;;;;;;;5.45;4.55;;;39.30;42.00;;;;;;4918095;29;20032;-79
2022/08/17 12:08:49;;;;;;;6.20;4.60;;;39.10;42.40;;;;;;4901913;29;20040;-79
2022/08/17 12:11:20;;;;;;;6.90;5.10;;;39.40;42.80;;;;;;4917639;29;20115;-81
2022/08/17 12:13:50;;;;;;;5.95;4.93;;;39.60;43.10;;;;;;4901536;29;20020;-77
2022/08/17 12:16:18;;;;;;;9.60;5.00;;;39.70;42.50;;;;;;4959310;28;20062;-80
2022/08/17 12:18:56;;;;;;;7.25;4.78;;;39.80;42.70;;;;;;4977018;28;20077;-79
2022/08/17 12:21:34;;;;;;;5.32;4.43;;;39.80;42.10;;;;;;4974854;28;20049;-79
2022/08/17 12:24:28;;;;;;;6.32;4.75;;;39.70;41.90;;;;;;4975756;28;20023;-78
2022/08/17 12:26:58;;;;;;;6.45;4.72;;;39.80;42.40;;;;;;4970297;28;20094;-81
2022/08/17 12:29:23;;;;;;;;;;;40.00;41.80;;;;;;4975856;28;20038;-84
2022/08/17 12:31:52;;;;;;;6.35;4.63;;;39.60;41.60;;;;;;4976674;28;19906;-78
2022/08/17 12:34:24;;;;;;;5.57;4.55;;;39.30;42.40;;;;;;4975726;28;20505;-80
2022/08/17 12:36:53;;;;;;;8.20;4.53;;;39.00;41.80;;;;;;4975447;28;20030;-78
2022/08/17 12:39:23;;;;;;;6.22;4.20;;;38.80;42.30;;;;;;4975791;28;20027;-81
2022/08/17 12:41:55;;;;;;;4.68;4.00;;;39.00;43.10;;;;;;4976017;28;20039;-79
2022/08/17 12:44:31;;;;;;;7.25;4.32;;;39.20;42.70;;;;;;4976343;28;20027;-79
2022/08/17 12:47:06;;;;;;;6.82;4.78;;;39.60;42.30;;;;;;4975050;28;20042;-80
2022/08/17 12:49:40;;;;;;;7.00;4.63;;;39.60;41.40;;;;;;4975965;28;20023;-83
2022/08/17 12:52:19;;;;;;;7.65;4.32;;;39.60;41.50;;;;;;4976189;28;20537;-80
2022/08/17 12:55:14;;;;;;;7.57;4.57;;;39.70;41.50;;;;;;4975191;28;20035;-82
2022/08/17 12:57:47;;;;;;;6.63;4.25;;;39.50;41.10;;;;;;4970010;28;20038;-79
2022/08/17 13:00:21;;;;;;;5.03;4.10;;;39.40;41.70;;;;;;4985977;28;20050;-76
2022/08/17 13:02:55;;;;;;;5.35;4.10;;;39.40;40.80;;;;;;4995912;28;20022;-79
2022/08/17 13:05:23;;;;;;;9.88;4.45;;;39.40;41.20;;;;;;4978265;28;20537;-83
2022/08/17 13:07:51;;;;;;;7.05;4.32;;;39.50;41.70;;;;;;4978293;28;20045;-78
2022/08/17 13:10:28;;;;;;;5.10;3.70;;;39.40;41.30;;;;;;4993239;28;20046;-79
2022/08/17 13:12:55;;;;;;;5.60;3.92;;;39.40;41.30;;;;;;4985918;28;20118;-79
2022/08/17 13:15:26;;;;;;;5.93;4.10;;;39.50;40.70;;;;;;4984176;28;20093;-78
2022/08/17 13:18:02;;;;;;;6.78;4.65;;;39.20;41.40;;;;;;4979250;28;20486;-80
2022/08/17 13:20:29;;;;;;;5.13;4.05;;;39.20;41.10;;;;;;4961421;28;20097;-78
2022/08/17 13:22:57;;;;;;;7.93;4.40;;;39.30;41.10;;;;;;4958204;28;20037;-79
2022/08/17 13:25:24;;;;;;;6.38;4.05;;;39.40;41.20;;;;;;4958581;28;20129;-78
2022/08/17 13:27:52;;;;;;;5.47;3.75;;;39.40;40.70;;;;;;4975237;28;20069;-78
2022/08/17 13:30:28;;;;;;;5.05;3.95;;;39.50;41.10;;;;;;4977086;28;20481;-79
2022/08/17 13:32:56;;;;;;;6.25;3.80;;;39.60;40.70;;;;;;4992797;28;20022;-81
2022/08/17 13:35:39;;;;;;;7.15;3.80;;;39.50;40.60;;;;;;4976556;28;20045;-79
2022/08/17 13:38:11;;;;;;;5.65;3.67;;;39.60;40.40;;;;;;4976696;28;20054;-79
2022/08/17 13:40:51;;;;;;;4.20;3.65;;;39.40;40.40;;;;;;4994830;28;20034;-79
2022/08/17 13:43:43;;;;;;;5.88;4.00;;;39.50;41.10;;;;;;4993269;28;20101;-82
2022/08/17 13:46:21;;;;;;;5.47;3.83;;;39.40;40.30;;;;;;4994870;28;20049;-79
2022/08/17 13:48:58;;;;;;;5.47;4.00;;;39.50;41.00;;;;;;4976442;28;20113;-82
2022/08/17 13:51:30;;;;;;;6.25;4.20;;;39.50;40.60;;;;;;4994770;28;20486;-80